Forest Park, Louisiana
Current Conditions -  °F | °C
As of 1:48 AM on Monday 22 Dec 2014 (Local Time) from KMLU Reporting Station
Haze Haze  
Wind Chill: 42°   Ceiling: 800
Heat Index: 45°   Visibility: 5mi
Dew Point: 45°   Wind: 5mph
Humidity: 100%   Direction: 200°SSW
Pressure: 29.89"   Gusts: NA
Location:  32.5473°N, 92.2007°W
Report Text: KMLU 220748Z AUTO 20004KT 5SM BR SCT004 BKN008 BKN015 07/07 A2989 RMK AO2
Loading
Personal Weather Stations






























Interactive Weather Map New forecast layout! Learn more

10-Day Weather Forecast

Advertisements
Track Severe Weather on mobile